Time;durP1;ratioP1;P1;durP2;ratioP2;P2;SDS_P1;SDS_P2;PMS_P1;PMS_P2;Temp;Humidity;BMP_temperature;BMP_pressure;BME280_temperature;BME280_humidity;BME280_pressure;Samples;Min_cycle;Max_cycle;Signal;HPM_P1;HPM_P2
2023/05/16 00:01:21;;;;;;;;;;;;;;;;;;;;;
2023/05/16 00:03:47;;;;;;;9.90;2.20;;;11.90;99.90;;;;;;6242162;23;20012;-87
2023/05/16 00:06:14;;;;;;;13.10;2.35;;;11.90;99.90;;;;;;6212270;23;20001;-90
2023/05/16 00:08:40;;;;;;;8.48;2.25;;;11.90;99.90;;;;;;6202162;23;20035;-91
2023/05/16 00:11:08;;;;;;;9.43;2.53;;;11.90;99.90;;;;;;6174177;23;20004;-89
2023/05/16 00:13:36;;;;;;;11.70;2.67;;;11.90;99.90;;;;;;6198001;23;20000;-90
2023/05/16 00:16:03;;;;;;;9.80;2.33;;;11.90;99.90;;;;;;6173090;23;20068;-91
2023/05/16 00:18:29;;;;;;;7.20;2.55;;;11.80;99.90;;;;;;6203034;23;20000;-90
2023/05/16 00:20:55;;;;;;;11.60;2.78;;;11.80;99.90;;;;;;6206038;23;20007;-92
2023/05/16 00:23:23;;;;;;;6.35;2.42;;;11.80;99.90;;;;;;6231331;23;20009;-90
2023/05/16 00:25:49;;;;;;;10.65;2.72;;;11.70;99.90;;;;;;6200040;23;20005;-87
2023/05/16 00:28:16;;;;;;;7.53;2.15;;;11.60;99.90;;;;;;6199951;23;20005;-92
2023/05/16 00:30:58;;;;;;;11.07;2.65;;;11.60;99.90;;;;;;6202382;23;20004;-91
2023/05/16 00:33:32;;;;;;;10.77;2.53;;;11.60;99.90;;;;;;6202508;23;20000;-90
2023/05/16 00:35:58;;;;;;;7.10;2.10;;;11.50;99.90;;;;;;6229625;23;20071;-89
2023/05/16 00:38:27;;;;;;;8.50;2.50;;;11.40;99.90;;;;;;6230108;23;19997;-92
2023/05/16 00:40:55;;;;;;;11.52;2.65;;;11.50;99.90;;;;;;6203679;23;20012;-90
2023/05/16 00:43:21;;;;;;;11.18;2.40;;;11.50;99.90;;;;;;6229183;23;19997;-90
2023/05/16 00:45:47;;;;;;;9.93;2.50;;;11.40;99.90;;;;;;6177735;23;20027;-90
2023/05/16 00:48:14;;;;;;;13.05;3.00;;;11.40;99.90;;;;;;6202307;23;20009;-92
2023/05/16 00:50:40;;;;;;;6.90;2.30;;;11.40;99.90;;;;;;6228637;23;20008;-91
2023/05/16 00:53:05;;;;;;;9.73;2.10;;;11.30;99.90;;;;;;6201913;23;20023;-91
2023/05/16 00:55:33;;;;;;;8.90;2.08;;;11.30;99.90;;;;;;6201639;23;19981;-91
2023/05/16 00:58:00;;;;;;;6.93;2.20;;;11.30;99.90;;;;;;6202089;23;20031;-90
2023/05/16 01:00:28;;;;;;;9.43;2.55;;;11.20;99.90;;;;;;6201796;23;20000;-90
2023/05/16 01:03:00;;;;;;;11.25;2.30;;;11.30;99.90;;;;;;6202525;23;20000;-88
2023/05/16 01:05:31;;;;;;;11.45;2.35;;;11.20;99.90;;;;;;6230619;23;20450;-91
2023/05/16 01:08:05;;;;;;;7.57;1.85;;;11.20;99.90;;;;;;6205647;23;20043;-93
2023/05/16 01:10:55;;;;;;;11.60;2.30;;;11.20;99.90;;;;;;6205563;23;20004;-92
2023/05/16 01:13:46;;;;;;;7.50;1.60;;;11.10;99.90;;;;;;6203330;23;20022;-91
2023/05/16 01:16:53;;;;;;;8.80;2.15;;;11.10;99.90;;;;;;6205213;23;20019;-90
2023/05/16 01:19:49;;;;;;;9.25;2.33;;;11.00;99.90;;;;;;6210221;23;20009;-91
2023/05/16 01:22:31;;;;;;;9.13;2.15;;;11.00;99.90;;;;;;6212916;23;20000;-89
2023/05/16 01:25:33;;;;;;;7.65;1.70;;;11.00;99.90;;;;;;6212565;23;20001;-88
2023/05/16 01:28:00;;;;;;;;;;;11.00;99.90;;;;;;6209429;23;20012;-90
2023/05/16 01:30:26;;;;;;;9.73;2.20;;;11.00;99.90;;;;;;6209961;23;19911;-90
2023/05/16 01:32:51;;;;;;;7.72;1.92;;;11.00;99.90;;;;;;6215925;23;20024;-89
2023/05/16 01:35:20;;;;;;;12.60;1.88;;;10.90;99.90;;;;;;6216746;23;20008;-92
2023/05/16 01:38:25;;;;;;;10.25;2.65;;;10.90;99.90;;;;;;6193901;23;20005;-91
2023/05/16 01:41:03;;;;;;;9.85;1.77;;;10.90;99.90;;;;;;6212429;23;20001;-92
2023/05/16 01:43:34;;;;;;;9.73;2.35;;;10.90;99.90;;;;;;6211130;23;20019;-89
2023/05/16 01:46:15;;;;;;;7.55;2.03;;;10.90;99.90;;;;;;6205620;23;20024;-91
2023/05/16 01:49:01;;;;;;;4.97;1.67;;;10.90;99.90;;;;;;6205584;23;20069;-92
2023/05/16 01:51:30;;;;;;;8.00;2.00;;;11.00;99.90;;;;;;6205404;23;19997;-91
2023/05/16 01:54:06;;;;;;;9.93;2.05;;;11.00;99.90;;;;;;6205459;23;20001;-91
2023/05/16 01:56:33;;;;;;;6.68;1.83;;;11.00;99.90;;;;;;6206729;23;20064;-92
2023/05/16 01:59:01;;;;;;;8.48;1.75;;;10.90;99.90;;;;;;6205567;23;20495;-92
2023/05/16 02:01:31;;;;;;;7.82;1.80;;;10.90;99.90;;;;;;6205618;23;20023;-91
2023/05/16 02:03:58;;;;;;;9.23;2.15;;;10.90;99.90;;;;;;6231806;23;20004;-91
2023/05/16 02:06:24;;;;;;;8.82;2.47;;;10.90;99.90;;;;;;6204619;23;20072;-91
2023/05/16 02:08:51;;;;;;;8.30;2.22;;;10.90;99.90;;;;;;6205163;23;20004;-90
2023/05/16 02:11:17;;;;;;;5.53;1.70;;;10.90;99.90;;;;;;6231804;23;20031;-90
2023/05/16 02:13:43;;;;;;;8.13;2.35;;;10.80;99.90;;;;;;6232051;23;20001;-91
2023/05/16 02:16:12;;;;;;;6.97;1.40;;;10.80;99.90;;;;;;6232401;23;20065;-92
2023/05/16 02:18:45;;;;;;;12.52;2.25;;;10.80;99.90;;;;;;6205154;23;20012;-91
2023/05/16 02:21:14;;;;;;;5.82;1.60;;;10.80;99.90;;;;;;6205316;23;20004;-90
2023/05/16 02:23:43;;;;;;;6.15;1.67;;;10.80;99.90;;;;;;6181196;23;20300;-90
2023/05/16 02:26:16;;;;;;;11.75;2.33;;;10.80;99.90;;;;;;6203835;23;19997;-89
2023/05/16 02:28:45;;;;;;;7.85;2.15;;;10.80;99.90;;;;;;6201963;23;20415;-90
2023/05/16 02:31:33;;;;;;;6.35;1.63;;;10.80;99.90;;;;;;6202395;23;20056;-90
2023/05/16 02:34:00;;;;;;;6.53;1.60;;;10.80;99.90;;;;;;6201719;23;20020;-92
2023/05/16 02:36:31;;;;;;;9.40;1.92;;;10.80;99.90;;;;;;6200560;23;20331;-91
2023/05/16 02:39:03;;;;;;;13.02;2.08;;;10.70;99.90;;;;;;6201738;23;20004;-92
2023/05/16 02:41:32;;;;;;;5.93;1.98;;;10.80;99.90;;;;;;6209055;23;20008;-91
2023/05/16 02:43:59;;;;;;;8.82;2.13;;;10.70;99.90;;;;;;6188022;23;20011;-90
2023/05/16 02:46:32;;;;;;;6.85;1.67;;;10.70;99.90;;;;;;6203576;23;20011;-91
2023/05/16 02:48:59;;;;;;;9.32;1.85;;;10.80;99.90;;;;;;6203543;23;20001;-90
2023/05/16 02:51:26;;;;;;;7.50;1.90;;;10.80;99.90;;;;;;6203081;23;19997;-91
2023/05/16 02:54:10;;;;;;;8.77;2.22;;;10.80;99.90;;;;;;6203453;23;19997;-90
2023/05/16 02:56:41;;;;;;;7.13;1.90;;;10.80;99.90;;;;;;6180931;23;20007;-89
2023/05/16 02:59:17;;;;;;;;;;;;;;;;;;;;;
2023/05/16 03:01:51;;;;;;;7.95;1.90;;;10.70;99.90;;;;;;6241789;23;20004;-91
2023/05/16 03:04:22;;;;;;;7.72;2.25;;;10.80;99.90;;;;;;6217748;23;19981;-89
2023/05/16 03:06:50;;;;;;;;;;;10.70;99.90;;;;;;6218498;23;20011;-90
2023/05/16 03:09:28;;;;;;;5.72;2.15;;;10.70;99.90;;;;;;6215850;23;19894;-90
2023/05/16 03:11:54;;;;;;;11.55;2.08;;;10.70;99.90;;;;;;6213970;23;19997;-91
2023/05/16 03:14:20;;;;;;;8.90;2.17;;;10.70;99.90;;;;;;6186397;23;20055;-90
2023/05/16 03:16:46;;;;;;;8.77;2.17;;;10.60;99.90;;;;;;6233416;23;20016;-91
2023/05/16 03:19:17;;;;;;;6.90;1.90;;;10.60;99.90;;;;;;6202860;23;20001;-92
2023/05/16 03:21:45;;;;;;;6.82;1.80;;;10.60;99.90;;;;;;6178916;23;20015;-91
2023/05/16 03:24:11;;;;;;;8.70;2.30;;;10.60;99.90;;;;;;6203133;23;20012;-90
2023/05/16 03:26:40;;;;;;;8.98;1.90;;;10.60;99.90;;;;;;6203093;23;20338;-90
2023/05/16 03:29:15;;;;;;;5.60;2.10;;;10.60;99.90;;;;;;6180526;23;20020;-90
2023/05/16 03:31:44;;;;;;;6.85;1.70;;;10.60;99.90;;;;;;6202920;23;19996;-92
2023/05/16 03:34:10;;;;;;;9.95;1.88;;;10.70;99.90;;;;;;6202406;23;20001;-89
2023/05/16 03:36:47;;;;;;;12.32;2.30;;;10.60;99.90;;;;;;6229139;23;20008;-91
2023/05/16 03:39:33;;;;;;;7.63;1.88;;;10.60;99.90;;;;;;6203067;23;20024;-91
2023/05/16 03:42:09;;;;;;;;;;;;;;;;;;;;;
2023/05/16 03:47:30;;;;;;;7.20;2.00;;;10.70;99.90;;;;;;6231684;23;20265;-92
2023/05/16 03:49:59;;;;;;;7.35;1.63;;;10.70;99.90;;;;;;6184120;23;20082;-91
2023/05/16 03:52:27;;;;;;;7.80;2.03;;;10.70;99.90;;;;;;6206549;23;20000;-92
2023/05/16 03:54:56;;;;;;;10.90;1.95;;;10.70;99.90;;;;;;6185606;23;20004;-90
2023/05/16 03:57:29;;;;;;;6.93;2.17;;;10.70;99.90;;;;;;6186847;23;20010;-92
2023/05/16 03:59:54;;;;;;;6.05;1.70;;;10.70;99.90;;;;;;6185725;23;20009;-90
2023/05/16 04:02:29;;;;;;;7.75;2.15;;;10.70;99.90;;;;;;6211338;23;19999;-91
2023/05/16 04:05:03;;;;;;;7.43;1.83;;;10.70;99.90;;;;;;6210055;23;20000;-90
2023/05/16 04:07:29;;;;;;;9.32;2.45;;;10.70;99.90;;;;;;6210359;23;20056;-91
2023/05/16 04:10:03;;;;;;;7.63;1.88;;;10.80;99.90;;;;;;6186340;23;20009;-90
2023/05/16 04:12:33;;;;;;;6.63;1.83;;;10.80;99.90;;;;;;6185403;23;20289;-89
2023/05/16 04:14:59;;;;;;;7.82;1.83;;;10.80;99.90;;;;;;6210707;23;20000;-91
2023/05/16 04:17:44;;;;;;;8.70;1.73;;;10.80;99.90;;;;;;6212416;23;20007;-92
2023/05/16 04:20:47;;;;;;;;;;;;;;;;;;;;;
2023/05/16 04:23:16;;;;;;;6.30;1.60;;;10.90;99.90;;;;;;6227793;23;20012;-89
2023/05/16 04:25:45;;;;;;;8.20;2.30;;;10.90;99.90;;;;;;6211890;23;20060;-90
2023/05/16 04:28:15;;;;;;;7.47;1.63;;;11.00;99.90;;;;;;6215346;23;19984;-91
2023/05/16 04:30:49;;;;;;;6.95;1.70;;;11.10;99.90;;;;;;6190668;23;20020;-91
2023/05/16 04:33:20;;;;;;;10.25;1.73;;;11.10;99.90;;;;;;6214634;23;20000;-87
2023/05/16 04:35:48;;;;;;;;;;;11.10;99.90;;;;;;6215516;23;20008;-90
2023/05/16 04:38:17;;;;;;;7.85;1.83;;;11.10;99.90;;;;;;6214237;23;19884;-91
2023/05/16 04:40:43;;;;;;;8.18;2.17;;;11.10;99.90;;;;;;6215667;23;20001;-92
2023/05/16 04:43:19;;;;;;;7.90;1.70;;;11.10;99.90;;;;;;6214357;23;20051;-92
2023/05/16 04:45:45;;;;;;;5.07;1.83;;;11.10;99.90;;;;;;6236385;23;20004;-90
2023/05/16 04:48:16;;;;;;;7.05;1.80;;;11.20;99.90;;;;;;6208306;23;20009;-91
2023/05/16 04:50:42;;;;;;;6.78;2.08;;;11.20;99.90;;;;;;6206934;23;20011;-92
2023/05/16 04:53:17;;;;;;;7.30;1.40;;;11.20;99.90;;;;;;6207305;23;20000;-92
2023/05/16 04:55:43;;;;;;;8.05;1.95;;;11.20;99.90;;;;;;6203591;23;20008;-91
2023/05/16 04:58:09;;;;;;;6.15;1.60;;;11.20;99.90;;;;;;6198623;23;20339;-93
2023/05/16 05:00:36;;;;;;;6.07;1.45;;;11.30;99.90;;;;;;6179033;23;20503;-92
2023/05/16 05:03:09;;;;;;;7.70;1.83;;;11.20;99.90;;;;;;6235789;23;20003;-92
2023/05/16 05:05:45;;;;;;;9.35;2.40;;;11.30;99.90;;;;;;6237215;23;19996;-91
2023/05/16 05:08:13;;;;;;;8.75;1.90;;;11.20;99.90;;;;;;6208590;23;20055;-90
2023/05/16 05:10:49;;;;;;;7.05;1.80;;;11.30;99.90;;;;;;6207473;23;20071;-90
2023/05/16 05:13:15;;;;;;;9.20;2.05;;;11.30;99.90;;;;;;6209129;23;20334;-90
2023/05/16 05:15:49;;;;;;;7.30;1.92;;;11.30;99.90;;;;;;6208783;23;20016;-92
2023/05/16 05:18:15;;;;;;;8.25;1.95;;;11.30;99.90;;;;;;6185376;23;20039;-90
2023/05/16 05:20:50;;;;;;;9.02;2.28;;;11.30;99.90;;;;;;6209980;23;20012;-91
2023/05/16 05:23:21;;;;;;;9.98;2.20;;;11.30;99.90;;;;;;6211374;23;20001;-91
2023/05/16 05:25:49;;;;;;;;;;;11.30;99.90;;;;;;6184812;23;20004;-92
2023/05/16 05:28:39;;;;;;;7.95;1.85;;;11.30;99.90;;;;;;6209410;23;19934;-90
2023/05/16 05:31:18;;;;;;;7.32;2.20;;;11.30;99.90;;;;;;6218009;23;20004;-93
2023/05/16 05:33:46;;;;;;;8.48;1.98;;;11.30;99.90;;;;;;6186447;23;20000;-92
2023/05/16 05:36:15;;;;;;;7.70;1.80;;;11.40;99.90;;;;;;6208352;23;19997;-90
2023/05/16 05:38:44;;;;;;;8.25;1.90;;;11.40;99.90;;;;;;6211761;23;20007;-93
2023/05/16 05:41:15;;;;;;;10.32;2.10;;;11.50;99.90;;;;;;6209628;23;20076;-91
2023/05/16 05:43:43;;;;;;;9.80;2.03;;;11.50;99.90;;;;;;6209091;23;20160;-92
2023/05/16 05:46:15;;;;;;;8.15;2.33;;;11.60;99.90;;;;;;6209144;23;20031;-91
2023/05/16 05:48:46;;;;;;;7.72;1.85;;;11.60;99.90;;;;;;6184301;23;20028;-91
2023/05/16 05:51:18;;;;;;;6.80;2.03;;;11.70;99.90;;;;;;6209605;23;19996;-90
2023/05/16 05:53:44;;;;;;;7.68;1.92;;;11.60;99.90;;;;;;6207649;23;20005;-90
2023/05/16 05:56:10;;;;;;;8.18;1.70;;;11.60;99.90;;;;;;6205462;23;20007;-89
2023/05/16 05:58:36;;;;;;;10.50;1.90;;;11.60;99.90;;;;;;6206218;23;20020;-88
2023/05/16 06:01:01;;;;;;;7.22;2.50;;;11.70;99.90;;;;;;6209259;23;19997;-89
2023/05/16 06:03:27;;;;;;;4.95;2.00;;;11.70;99.90;;;;;;6183950;23;20004;-89
2023/05/16 06:05:53;;;;;;;7.15;1.88;;;11.70;99.90;;;;;;6237394;23;20027;-89
2023/05/16 06:08:19;;;;;;;7.88;1.95;;;11.70;99.90;;;;;;6213410;23;20027;-90
2023/05/16 06:10:45;;;;;;;7.22;1.95;;;11.80;99.90;;;;;;6216302;23;20003;-89
2023/05/16 06:13:10;;;;;;;8.40;1.83;;;11.80;99.90;;;;;;6218798;23;20008;-89
2023/05/16 06:15:42;;;;;;;4.68;1.58;;;11.90;99.90;;;;;;6216102;23;19996;-90
2023/05/16 06:18:10;;;;;;;6.30;1.63;;;11.90;99.90;;;;;;6238477;23;20028;-90
2023/05/16 06:20:35;;;;;;;9.27;2.10;;;11.90;99.90;;;;;;6182698;23;20007;-89
2023/05/16 06:23:01;;;;;;;8.27;1.90;;;12.00;99.90;;;;;;6200095;23;20001;-89
2023/05/16 06:25:27;;;;;;;6.88;1.98;;;12.00;99.90;;;;;;6201132;23;20005;-90
2023/05/16 06:27:53;;;;;;;6.25;1.80;;;12.00;99.90;;;;;;6174971;23;20009;-89
2023/05/16 06:30:18;;;;;;;5.65;1.83;;;12.00;99.90;;;;;;6200543;23;20323;-90
2023/05/16 06:32:44;;;;;;;6.43;1.88;;;12.10;99.90;;;;;;6198714;23;20479;-90
2023/05/16 06:35:12;;;;;;;6.75;1.92;;;12.10;99.90;;;;;;6199376;23;20005;-89
2023/05/16 06:37:38;;;;;;;6.72;1.65;;;12.20;99.90;;;;;;6225835;23;20080;-89
2023/05/16 06:40:05;;;;;;;7.43;1.80;;;12.20;99.90;;;;;;6199857;23;20000;-90
2023/05/16 06:42:33;;;;;;;9.27;1.90;;;12.30;99.90;;;;;;6200384;23;19997;-91
2023/05/16 06:44:59;;;;;;;7.47;1.70;;;12.30;99.90;;;;;;6201839;23;20064;-89
2023/05/16 06:47:24;;;;;;;7.00;1.73;;;12.30;99.90;;;;;;6202470;23;20000;-90
2023/05/16 06:49:50;;;;;;;7.80;1.83;;;12.30;99.90;;;;;;6203579;23;20009;-90
2023/05/16 06:52:16;;;;;;;8.93;2.28;;;12.30;99.90;;;;;;6230330;23;20001;-90
2023/05/16 06:54:42;;;;;;;7.88;1.83;;;12.30;99.90;;;;;;6179572;23;20038;-89
2023/05/16 06:57:08;;;;;;;8.60;1.83;;;12.30;99.90;;;;;;6204452;23;20060;-90
2023/05/16 06:59:36;;;;;;;9.73;1.85;;;12.40;99.90;;;;;;6203949;23;20004;-90
2023/05/16 07:02:05;;;;;;;5.72;1.88;;;12.40;99.90;;;;;;6204254;23;20000;-90
2023/05/16 07:04:35;;;;;;;4.75;1.73;;;12.50;99.90;;;;;;6180310;23;20027;-91
2023/05/16 07:07:01;;;;;;;5.63;1.43;;;12.50;99.90;;;;;;6181056;23;20004;-89
2023/05/16 07:09:26;;;;;;;7.00;1.50;;;12.50;99.90;;;;;;6205852;23;20263;-90
2023/05/16 07:11:52;;;;;;;8.05;1.80;;;12.60;99.90;;;;;;6203815;23;19997;-91
2023/05/16 07:14:18;;;;;;;6.38;1.45;;;12.70;99.90;;;;;;6175290;23;20004;-90
2023/05/16 07:16:44;;;;;;;7.55;1.92;;;12.80;99.90;;;;;;6169000;23;20019;-90
2023/05/16 07:19:10;;;;;;;7.35;1.60;;;12.80;99.80;;;;;;6220353;23;20024;-92
2023/05/16 07:21:36;;;;;;;4.90;1.80;;;12.90;99.70;;;;;;6172402;23;20009;-91
2023/05/16 07:24:01;;;;;;;3.78;1.15;;;12.90;99.40;;;;;;6203208;23;20139;-89
2023/05/16 07:26:27;;;;;;;5.55;1.60;;;12.90;99.20;;;;;;6177221;23;20419;-91
2023/05/16 07:28:55;;;;;;;6.82;1.80;;;12.90;97.80;;;;;;6206006;23;20004;-89
2023/05/16 07:31:22;;;;;;;5.25;1.35;;;12.80;97.70;;;;;;6211384;23;20007;-90
2023/05/16 07:33:48;;;;;;;3.72;1.00;;;12.80;97.90;;;;;;6236090;23;20004;-90
2023/05/16 07:36:15;;;;;;;4.32;1.20;;;12.80;98.20;;;;;;6210495;23;20001;-90
2023/05/16 07:38:41;;;;;;;6.53;1.15;;;12.80;97.90;;;;;;6208356;23;20000;-90
2023/05/16 07:41:07;;;;;;;4.97;1.30;;;12.80;97.60;;;;;;6202652;23;20001;-92
2023/05/16 07:43:36;;;;;;;8.25;1.42;;;12.80;97.20;;;;;;6203375;23;20092;-91
2023/05/16 07:46:02;;;;;;;3.95;1.27;;;12.80;96.90;;;;;;6207333;23;20001;-90
2023/05/16 07:48:28;;;;;;;5.28;1.30;;;12.80;96.70;;;;;;6218367;23;20008;-90
2023/05/16 07:50:54;;;;;;;4.10;1.02;;;12.80;96.70;;;;;;6218086;23;20004;-89
2023/05/16 07:53:20;;;;;;;5.55;1.30;;;12.90;96.30;;;;;;6217133;23;20032;-90
2023/05/16 07:55:47;;;;;;;2.40;0.90;;;13.00;96.10;;;;;;6187175;23;20011;-90
2023/05/16 07:58:13;;;;;;;5.32;1.10;;;13.00;95.80;;;;;;6176901;23;20004;-90
2023/05/16 08:00:39;;;;;;;3.92;1.02;;;13.10;95.90;;;;;;6200768;23;20012;-91
2023/05/16 08:03:05;;;;;;;4.00;1.17;;;13.20;95.80;;;;;;6199379;23;20011;-89
2023/05/16 08:05:31;;;;;;;3.53;0.82;;;13.20;95.40;;;;;;6198923;23;20004;-90
2023/05/16 08:07:57;;;;;;;2.92;1.02;;;13.30;95.40;;;;;;6196646;23;20039;-90
2023/05/16 08:10:23;;;;;;;4.97;1.08;;;13.40;95.10;;;;;;6197792;23;20015;-89
2023/05/16 08:12:49;;;;;;;4.10;0.88;;;13.30;94.70;;;;;;6196470;23;20004;-89
2023/05/16 08:15:17;;;;;;;2.63;0.90;;;13.40;94.70;;;;;;6196706;23;20005;-89
2023/05/16 08:17:43;;;;;;;3.20;0.85;;;13.40;94.70;;;;;;6171314;23;20012;-89
2023/05/16 08:20:09;;;;;;;5.78;1.10;;;13.50;94.90;;;;;;6195841;23;20024;-90
2023/05/16 08:22:35;;;;;;;3.17;0.90;;;13.60;94.10;;;;;;6195667;23;19996;-89
2023/05/16 08:25:04;;;;;;;5.35;0.70;;;13.70;94.20;;;;;;6195363;23;20064;-90
2023/05/16 08:27:29;;;;;;;2.50;1.10;;;13.70;94.20;;;;;;6194810;23;20012;-89
2023/05/16 08:29:57;;;;;;;2.17;0.80;;;13.70;94.30;;;;;;6221121;23;20039;-89
2023/05/16 08:32:23;;;;;;;4.30;1.20;;;13.90;94.00;;;;;;6194295;23;20095;-89
2023/05/16 08:34:49;;;;;;;6.60;1.48;;;14.00;94.20;;;;;;6194074;23;20001;-89
2023/05/16 08:37:15;;;;;;;3.83;1.10;;;14.10;94.20;;;;;;6193586;23;20043;-89
2023/05/16 08:39:44;;;;;;;3.75;1.10;;;14.00;94.30;;;;;;6193855;23;20009;-88
2023/05/16 08:42:10;;;;;;;2.85;0.77;;;14.00;94.50;;;;;;6193929;23;20001;-90
2023/05/16 08:44:35;;;;;;;2.25;1.08;;;13.90;94.60;;;;;;6168749;23;20028;-85
2023/05/16 08:47:16;;;;;;;2.28;0.90;;;13.90;94.90;;;;;;6192084;23;20036;-84
2023/05/16 08:49:46;;;;;;;1.77;0.60;;;13.80;94.60;;;;;;6193321;23;20012;-84
2023/05/16 08:52:16;;;;;;;2.53;0.90;;;13.70;94.40;;;;;;6192665;23;20036;-84
2023/05/16 08:54:45;;;;;;;2.27;0.83;;;13.60;94.60;;;;;;6219943;23;20001;-83
2023/05/16 08:57:13;;;;;;;1.35;0.45;;;13.60;94.40;;;;;;6194126;23;20012;-84
2023/05/16 08:59:40;;;;;;;2.88;0.85;;;13.70;94.60;;;;;;6219346;23;20439;-84
2023/05/16 09:02:07;;;;;;;2.00;0.63;;;13.80;94.50;;;;;;6220914;23;20004;-85
2023/05/16 09:04:32;;;;;;;1.98;0.90;;;13.90;93.80;;;;;;6170155;23;20008;-84
2023/05/16 09:06:58;;;;;;;3.45;0.82;;;13.80;93.10;;;;;;6169341;23;20004;-84
2023/05/16 09:09:24;;;;;;;1.80;0.80;;;13.90;93.10;;;;;;6193613;23;20011;-84
2023/05/16 09:11:50;;;;;;;2.95;0.82;;;13.90;93.30;;;;;;6168537;23;20055;-84
2023/05/16 09:14:16;;;;;;;1.75;0.60;;;14.00;93.50;;;;;;6168896;23;20005;-85
2023/05/16 09:16:44;;;;;;;2.38;0.63;;;14.10;93.60;;;;;;6169797;23;20492;-84
2023/05/16 09:19:12;;;;;;;2.40;0.77;;;14.20;93.50;;;;;;6175270;23;20011;-84
2023/05/16 09:21:39;;;;;;;2.40;0.75;;;14.30;93.60;;;;;;6197646;23;20007;-84
2023/05/16 09:24:06;;;;;;;2.08;0.70;;;14.40;93.50;;;;;;6211174;23;20019;-85
2023/05/16 09:26:34;;;;;;;1.85;0.70;;;14.50;93.60;;;;;;6219508;23;19985;-84
2023/05/16 09:29:01;;;;;;;3.38;1.02;;;14.60;93.60;;;;;;6244675;23;20007;-84
2023/05/16 09:31:36;;;;;;;3.40;1.00;;;14.60;93.20;;;;;;6193611;23;19996;-84
2023/05/16 09:34:03;;;;;;;4.30;0.70;;;14.60;92.90;;;;;;6239436;23;19997;-85
2023/05/16 09:36:31;;;;;;;3.28;0.70;;;14.60;93.00;;;;;;6174242;23;20024;-84
2023/05/16 09:38:56;;;;;;;2.80;1.02;;;14.60;93.00;;;;;;6219277;23;20001;-85
2023/05/16 09:41:22;;;;;;;4.45;1.10;;;14.60;92.60;;;;;;6193724;23;20011;-83
2023/05/16 09:43:48;;;;;;;2.45;0.88;;;14.60;92.60;;;;;;6168612;23;20308;-84
2023/05/16 09:46:14;;;;;;;3.45;0.88;;;14.60;92.70;;;;;;6168855;23;20009;-84
2023/05/16 09:48:51;;;;;;;2.92;0.80;;;14.60;92.60;;;;;;6219847;23;20080;-84
2023/05/16 09:51:21;;;;;;;3.33;0.70;;;14.50;92.60;;;;;;6193487;23;20005;-84
2023/05/16 09:53:47;;;;;;;4.28;0.85;;;14.40;92.60;;;;;;6193413;23;20023;-82
2023/05/16 09:56:14;;;;;;;3.13;1.10;;;14.30;92.80;;;;;;6220178;23;20418;-84
2023/05/16 09:58:43;;;;;;;4.03;1.05;;;14.40;92.90;;;;;;6192721;23;20067;-84
2023/05/16 10:01:09;;;;;;;3.22;0.88;;;14.50;92.70;;;;;;6192550;23;20070;-84
2023/05/16 10:03:38;;;;;;;3.75;0.95;;;14.50;92.60;;;;;;6168195;23;20005;-84
2023/05/16 10:06:05;;;;;;;2.33;0.75;;;14.50;92.60;;;;;;6218749;23;20005;-84
2023/05/16 10:08:35;;;;;;;3.58;0.85;;;14.50;92.50;;;;;;6167200;23;20004;-85
2023/05/16 10:11:03;;;;;;;4.00;1.40;;;14.50;92.60;;;;;;6166904;23;20018;-84
2023/05/16 10:13:31;;;;;;;3.17;0.90;;;14.60;92.30;;;;;;6191189;23;20000;-86
2023/05/16 10:16:01;;;;;;;5.57;1.33;;;14.70;92.40;;;;;;6191268;23;19996;-85
2023/05/16 10:18:31;;;;;;;2.22;0.77;;;14.80;91.50;;;;;;6191065;23;20009;-86
2023/05/16 10:21:04;;;;;;;2.08;0.63;;;14.90;91.20;;;;;;6192079;23;20324;-85
2023/05/16 10:23:31;;;;;;;3.35;0.70;;;15.00;91.00;;;;;;6219092;23;20323;-85
2023/05/16 10:25:59;;;;;;;2.83;0.70;;;15.10;90.70;;;;;;6222405;23;19997;-86
2023/05/16 10:28:27;;;;;;;4.53;1.10;;;15.30;90.60;;;;;;6222311;23;20011;-85
2023/05/16 10:30:54;;;;;;;5.18;1.13;;;15.30;90.30;;;;;;6167612;23;20005;-85
2023/05/16 10:33:20;;;;;;;5.05;1.40;;;15.40;90.40;;;;;;6172056;23;20028;-85
2023/05/16 10:35:46;;;;;;;5.78;1.38;;;15.30;89.80;;;;;;6171949;23;20092;-84
2023/05/16 10:38:16;;;;;;;4.75;1.30;;;15.10;89.10;;;;;;6195039;23;20433;-86
2023/05/16 10:40:42;;;;;;;5.05;1.10;;;15.00;89.70;;;;;;6193976;23;19996;-85
2023/05/16 10:43:09;;;;;;;4.28;1.10;;;15.10;89.40;;;;;;6193891;23;20328;-86
2023/05/16 10:45:40;;;;;;;2.53;0.95;;;15.10;88.50;;;;;;6193289;23;20004;-86
2023/05/16 10:48:08;;;;;;;2.50;0.82;;;15.10;88.50;;;;;;6191783;23;20051;-85
2023/05/16 10:50:45;;;;;;;2.72;0.80;;;15.30;89.30;;;;;;6192352;23;20004;-85
2023/05/16 10:53:19;;;;;;;2.72;0.80;;;15.30;88.00;;;;;;6192213;23;20003;-85
2023/05/16 10:55:57;;;;;;;2.83;1.00;;;15.30;87.20;;;;;;6192865;23;20001;-86
2023/05/16 10:58:44;;;;;;;3.63;1.00;;;15.30;86.00;;;;;;6194639;23;20088;-85
2023/05/16 11:01:31;;;;;;;2.60;0.90;;;15.20;85.70;;;;;;6195690;23;20011;-85
2023/05/16 11:03:57;;;;;;;2.53;0.82;;;15.10;86.20;;;;;;6199812;23;20000;-85
2023/05/16 11:06:33;;;;;;;2.67;0.90;;;15.20;87.20;;;;;;6214945;23;19984;-85
2023/05/16 11:09:10;;;;;;;2.85;0.82;;;15.20;87.40;;;;;;6217082;23;20024;-85
2023/05/16 11:11:51;;;;;;;3.63;1.08;;;15.20;86.90;;;;;;6242677;23;20012;-85
2023/05/16 11:14:23;;;;;;;5.38;1.20;;;15.20;86.80;;;;;;6212921;23;20000;-85
2023/05/16 11:17:00;;;;;;;3.33;1.13;;;15.30;87.00;;;;;;6220570;23;20060;-85
2023/05/16 11:19:32;;;;;;;4.75;1.23;;;15.30;86.50;;;;;;6192197;23;20005;-85
2023/05/16 11:22:05;;;;;;;3.53;1.00;;;15.30;86.20;;;;;;6191814;23;20005;-85
2023/05/16 11:24:33;;;;;;;4.22;0.90;;;15.20;85.90;;;;;;6191242;23;20080;-84
2023/05/16 11:27:00;;;;;;;3.10;0.90;;;15.20;86.50;;;;;;6166922;23;20331;-85
2023/05/16 11:29:32;;;;;;;4.35;0.98;;;15.40;86.90;;;;;;6191706;23;20330;-86
2023/05/16 11:31:59;;;;;;;2.17;0.90;;;15.40;86.20;;;;;;6217480;23;20123;-86
2023/05/16 11:34:25;;;;;;;2.90;0.80;;;15.50;86.60;;;;;;6191552;23;20351;-86
2023/05/16 11:36:51;;;;;;;3.05;0.80;;;15.50;86.20;;;;;;6191041;23;20107;-84
2023/05/16 11:39:18;;;;;;;2.75;1.20;;;15.60;87.00;;;;;;6191240;23;19997;-84
2023/05/16 11:41:45;;;;;;;4.97;1.38;;;15.70;86.30;;;;;;6191869;23;20004;-84
2023/05/16 11:44:11;;;;;;;3.72;1.23;;;15.60;86.20;;;;;;6166550;23;20008;-85
2023/05/16 11:46:44;;;;;;;4.65;1.33;;;15.60;86.40;;;;;;6166295;23;20323;-84
2023/05/16 11:49:10;;;;;;;5.65;1.23;;;15.70;86.20;;;;;;6190198;23;20005;-85
2023/05/16 11:51:42;;;;;;;3.08;1.00;;;15.70;85.70;;;;;;6165021;23;20039;-85
2023/05/16 11:54:11;;;;;;;5.03;1.08;;;15.70;85.00;;;;;;6165162;23;20024;-85
2023/05/16 11:56:38;;;;;;;2.85;1.10;;;15.70;85.60;;;;;;6217088;23;20009;-86
2023/05/16 11:59:04;;;;;;;1.75;0.73;;;15.80;86.20;;;;;;6191059;23;20084;-86
2023/05/16 12:01:37;;;;;;;1.88;1.00;;;15.80;85.40;;;;;;6190933;23;20104;-85
2023/05/16 12:04:13;;;;;;;4.50;1.40;;;15.70;85.20;;;;;;6192013;23;20000;-85
2023/05/16 12:06:42;;;;;;;3.15;1.02;;;15.70;84.10;;;;;;6192822;23;20015;-85
2023/05/16 12:09:13;;;;;;;3.63;1.30;;;15.60;84.10;;;;;;6167608;23;20087;-85
2023/05/16 12:11:40;;;;;;;2.50;0.90;;;15.70;84.50;;;;;;6192575;23;20000;-84
2023/05/16 12:14:14;;;;;;;3.15;1.20;;;15.70;84.30;;;;;;6192163;23;20004;-85
2023/05/16 12:16:42;;;;;;;5.00;1.30;;;15.80;84.30;;;;;;6218757;23;20004;-86
2023/05/16 12:19:08;;;;;;;3.17;1.27;;;15.90;83.90;;;;;;6191271;23;20019;-84
2023/05/16 12:21:35;;;;;;;2.65;1.20;;;15.80;83.20;;;;;;6165634;23;20435;-86
2023/05/16 12:24:01;;;;;;;3.15;0.95;;;15.80;83.50;;;;;;6190144;23;20004;-85
2023/05/16 12:26:32;;;;;;;3.65;1.10;;;15.80;83.80;;;;;;6165249;23;20011;-85
2023/05/16 12:29:02;;;;;;;3.55;1.23;;;15.80;83.80;;;;;;6191307;23;20008;-85
2023/05/16 12:31:35;;;;;;;5.22;1.02;;;15.80;84.30;;;;;;6192805;23;20008;-85
2023/05/16 12:34:00;;;;;;;3.60;1.10;;;15.90;84.90;;;;;;6193092;23;20004;-85
2023/05/16 12:36:31;;;;;;;2.40;0.95;;;16.00;85.20;;;;;;6218249;23;20005;-86
2023/05/16 12:39:01;;;;;;;3.05;1.15;;;16.20;84.90;;;;;;6192658;23;20089;-85
2023/05/16 12:41:30;;;;;;;4.65;1.30;;;16.30;84.70;;;;;;6193138;23;20054;-85
2023/05/16 12:44:16;;;;;;;2.63;1.20;;;16.30;84.50;;;;;;6194537;23;20023;-86
2023/05/16 12:47:01;;;;;;;3.95;0.90;;;16.30;84.80;;;;;;6201255;23;20024;-85
2023/05/16 12:49:27;;;;;;;2.58;0.93;;;16.40;84.80;;;;;;6217277;23;20009;-85
2023/05/16 12:51:56;;;;;;;1.90;0.95;;;16.40;84.20;;;;;;6216887;23;19995;-86
2023/05/16 12:54:21;;;;;;;4.13;1.13;;;16.40;84.30;;;;;;6212951;23;19985;-86
2023/05/16 12:56:48;;;;;;;2.80;1.00;;;16.40;83.80;;;;;;6212032;23;20004;-86
2023/05/16 12:59:14;;;;;;;2.75;0.90;;;16.30;83.90;;;;;;6194848;23;20004;-86
2023/05/16 13:01:40;;;;;;;4.05;1.05;;;16.20;83.30;;;;;;6166190;23;20051;-86
2023/05/16 13:04:15;;;;;;;3.50;1.00;;;16.10;83.20;;;;;;6190761;23;20055;-85
2023/05/16 13:06:41;;;;;;;5.13;1.33;;;15.90;83.00;;;;;;6217013;23;20087;-86